createdAt,value
2019-03-20T00:01:30.381Z,99.90
2019-03-20T00:03:50.870Z,99.90
2019-03-20T00:06:11.714Z,99.90
2019-03-20T00:08:32.818Z,99.90
2019-03-20T00:10:53.362Z,99.90
2019-03-20T00:13:13.982Z,99.90
2019-03-20T00:15:34.648Z,99.90
2019-03-20T00:17:55.256Z,99.90
2019-03-20T00:20:16.023Z,99.90
2019-03-20T00:22:36.639Z,99.90
2019-03-20T00:24:57.321Z,99.90
2019-03-20T00:27:17.904Z,99.90
2019-03-20T00:29:38.539Z,99.90
2019-03-20T00:31:59.227Z,99.90
2019-03-20T00:34:19.871Z,99.90
2019-03-20T00:36:41.531Z,99.90
2019-03-20T00:39:02.044Z,99.90
2019-03-20T00:41:23.821Z,99.90
2019-03-20T00:43:44.456Z,99.90
2019-03-20T00:46:05.073Z,99.90
2019-03-20T00:48:25.608Z,99.90
2019-03-20T00:50:46.101Z,99.90
2019-03-20T00:53:06.798Z,99.90
2019-03-20T00:55:27.275Z,99.90
2019-03-20T00:57:48.851Z,99.90
2019-03-20T01:00:20.672Z,99.90
2019-03-20T01:02:41.302Z,99.90
2019-03-20T01:05:12.132Z,99.90
2019-03-20T01:07:25.603Z,99.90
2019-03-20T01:09:46.168Z,99.90
2019-03-20T01:12:06.682Z,99.90
2019-03-20T01:14:39.327Z,99.90
2019-03-20T01:16:59.654Z,99.90
2019-03-20T01:19:20.235Z,99.90
2019-03-20T01:21:40.775Z,99.90
2019-03-20T01:24:01.417Z,99.90
2019-03-20T01:26:21.962Z,99.90
2019-03-20T01:28:42.452Z,99.90
2019-03-20T01:31:03.144Z,99.90
2019-03-20T01:33:23.661Z,99.90
2019-03-20T01:35:44.304Z,99.90
2019-03-20T01:38:05.476Z,99.90
2019-03-20T01:40:26.062Z,99.90
2019-03-20T01:42:46.681Z,99.90
2019-03-20T01:45:07.841Z,99.90
2019-03-20T01:47:28.909Z,99.90
2019-03-20T01:49:49.468Z,99.90
2019-03-20T01:52:11.108Z,99.90
2019-03-20T01:54:31.859Z,99.90
2019-03-20T01:56:52.365Z,99.90
2019-03-20T01:59:13.019Z,99.90
2019-03-20T02:01:33.625Z,99.90
2019-03-20T02:03:54.197Z,99.90
2019-03-20T02:06:15.060Z,99.90
2019-03-20T02:08:35.739Z,99.90
2019-03-20T02:10:56.366Z,99.90
2019-03-20T02:13:16.967Z,99.90
2019-03-20T02:15:39.245Z,99.90
2019-03-20T02:17:59.683Z,99.90
2019-03-20T02:20:20.915Z,99.90
2019-03-20T02:22:41.560Z,99.90
2019-03-20T02:25:02.114Z,99.90
2019-03-20T02:27:23.709Z,99.90
2019-03-20T02:29:44.177Z,99.90
2019-03-20T02:32:05.124Z,99.90
2019-03-20T02:34:26.289Z,99.90
2019-03-20T02:36:49.195Z,99.90
2019-03-20T02:39:09.154Z,99.90
2019-03-20T02:41:29.913Z,99.90
2019-03-20T02:43:50.531Z,99.90
2019-03-20T02:46:11.100Z,99.90
2019-03-20T02:48:31.705Z,99.90
2019-03-20T02:50:52.362Z,99.90
2019-03-20T02:53:12.996Z,99.90
2019-03-20T02:55:33.552Z,99.90
2019-03-20T02:57:54.156Z,99.90
2019-03-20T03:00:18.627Z,99.90
2019-03-20T03:02:39.286Z,99.90
2019-03-20T03:04:59.913Z,99.90
2019-03-20T03:07:21.466Z,99.90
2019-03-20T03:09:42.075Z,99.90
2019-03-20T03:12:04.020Z,99.90
2019-03-20T03:14:24.521Z,99.90
2019-03-20T03:16:45.006Z,99.90
2019-03-20T03:19:05.547Z,99.90
2019-03-20T03:21:26.235Z,99.90
2019-03-20T03:23:47.802Z,99.90
2019-03-20T03:26:20.977Z,99.90
2019-03-20T03:28:40.981Z,99.90
2019-03-20T03:31:01.499Z,99.90
2019-03-20T03:33:22.106Z,99.90
2019-03-20T03:35:43.715Z,99.90
2019-03-20T03:38:04.513Z,99.90
2019-03-20T03:40:25.255Z,99.90
2019-03-20T03:42:46.257Z,99.90
2019-03-20T03:45:10.183Z,99.90
2019-03-20T03:47:31.846Z,99.90
2019-03-20T03:49:52.359Z,99.90
2019-03-20T03:52:13.136Z,99.90
2019-03-20T03:54:33.816Z,99.90
2019-03-20T03:56:54.714Z,99.90
2019-03-20T03:59:15.410Z,99.90
2019-03-20T04:01:36.947Z,99.90
2019-03-20T04:03:57.485Z,99.90
2019-03-20T04:06:18.022Z,99.90
2019-03-20T04:08:38.468Z,99.90
2019-03-20T04:10:59.113Z,99.90
2019-03-20T04:13:20.729Z,99.90
2019-03-20T04:15:41.399Z,99.90
2019-03-20T04:18:02.087Z,99.90
2019-03-20T04:20:25.389Z,99.90
2019-03-20T04:22:45.878Z,99.90
2019-03-20T04:25:08.050Z,99.90
2019-03-20T04:27:28.282Z,99.90
2019-03-20T04:29:48.922Z,99.90
2019-03-20T04:32:09.427Z,99.90
2019-03-20T04:34:29.895Z,99.90
2019-03-20T04:36:50.519Z,99.90
2019-03-20T04:39:11.146Z,99.90
2019-03-20T04:41:31.649Z,99.90
2019-03-20T04:43:52.256Z,99.90
2019-03-20T04:46:12.794Z,99.90
2019-03-20T04:48:33.413Z,99.90
2019-03-20T04:50:54.380Z,99.90
2019-03-20T04:53:14.859Z,99.90
2019-03-20T04:55:35.797Z,99.90
2019-03-20T04:57:57.885Z,99.90
2019-03-20T05:00:20.605Z,99.90
2019-03-20T05:02:40.935Z,99.90
2019-03-20T05:05:01.379Z,99.90
2019-03-20T05:07:21.952Z,99.90
2019-03-20T05:09:43.468Z,99.90
2019-03-20T05:12:04.071Z,99.90
2019-03-20T05:14:24.601Z,99.90
2019-03-20T05:16:45.219Z,99.90
2019-03-20T05:19:05.920Z,99.90
2019-03-20T05:21:27.630Z,99.90
2019-03-20T05:23:49.257Z,99.90
2019-03-20T05:26:09.828Z,99.90
2019-03-20T05:28:30.377Z,99.90
2019-03-20T05:30:53.883Z,99.90
2019-03-20T05:33:14.345Z,99.90
2019-03-20T05:35:34.890Z,99.90
2019-03-20T05:37:55.450Z,99.90
2019-03-20T05:40:18.110Z,99.90
2019-03-20T05:42:38.374Z,99.90
2019-03-20T05:44:59.814Z,99.90
2019-03-20T05:47:20.346Z,99.90
2019-03-20T05:50:00.325Z,99.90
2019-03-20T05:52:20.760Z,99.90
2019-03-20T05:54:47.005Z,99.90
2019-03-20T05:57:07.567Z,99.90
2019-03-20T05:59:28.122Z,99.90
2019-03-20T06:01:48.735Z,99.90
2019-03-20T06:04:09.382Z,99.90
2019-03-20T06:06:30.097Z,99.90
2019-03-20T06:08:50.635Z,99.90
2019-03-20T06:11:11.169Z,99.90
2019-03-20T06:13:31.792Z,99.90
2019-03-20T06:15:52.330Z,99.40
2019-03-20T06:18:12.880Z,98.70
2019-03-20T06:20:34.513Z,98.30
2019-03-20T06:22:55.182Z,98.20
2019-03-20T06:25:16.668Z,97.70
2019-03-20T06:27:37.184Z,96.80
2019-03-20T06:29:57.855Z,96.30
2019-03-20T06:32:18.451Z,95.40
2019-03-20T06:34:38.980Z,94.30
2019-03-20T06:36:59.537Z,92.80
2019-03-20T06:39:20.169Z,92.50
2019-03-20T06:41:42.414Z,90.60
2019-03-20T06:44:03.018Z,89.00
2019-03-20T06:46:23.543Z,78.40
2019-03-20T06:48:44.010Z,65.10
2019-03-20T06:51:04.040Z,59.90
2019-03-20T06:53:24.575Z,63.40
2019-03-20T06:55:45.123Z,62.50
2019-03-20T06:58:05.774Z,58.00
2019-03-20T07:00:38.641Z,53.40
2019-03-20T07:03:00.162Z,50.60
2019-03-20T07:05:56.639Z,46.60
2019-03-20T07:08:17.719Z,44.00
2019-03-20T07:10:55.917Z,42.10
2019-03-20T07:13:16.779Z,42.40
2019-03-20T07:15:37.015Z,39.00
2019-03-20T07:17:57.256Z,34.60
2019-03-20T07:20:17.470Z,36.20
2019-03-20T07:22:37.864Z,34.40
2019-03-20T07:24:58.669Z,34.30
2019-03-20T07:27:18.942Z,38.20
2019-03-20T07:29:39.178Z,40.70
2019-03-20T07:31:59.531Z,41.50
2019-03-20T07:34:19.869Z,42.90
2019-03-20T07:36:41.465Z,41.80
2019-03-20T07:39:01.523Z,44.70
2019-03-20T07:41:23.032Z,46.20
2019-03-20T07:43:43.461Z,47.70
2019-03-20T07:46:04.048Z,45.30
2019-03-20T07:48:24.610Z,44.60
2019-03-20T07:50:45.220Z,43.60
2019-03-20T07:53:05.418Z,41.50
2019-03-20T07:55:25.390Z,39.30
2019-03-20T07:57:46.109Z,39.50
2019-03-20T08:00:10.229Z,40.20
2019-03-20T08:02:30.288Z,41.10
2019-03-20T08:04:50.908Z,41.80
2019-03-20T08:07:10.852Z,42.30
2019-03-20T08:09:31.387Z,43.30
2019-03-20T08:11:52.014Z,44.50
2019-03-20T08:14:12.545Z,45.40
2019-03-20T08:16:33.177Z,46.60
2019-03-20T08:18:53.217Z,46.80
2019-03-20T08:21:13.718Z,47.70
2019-03-20T08:23:34.374Z,46.90
2019-03-20T08:25:54.900Z,46.50
2019-03-20T08:28:15.417Z,46.90
2019-03-20T08:30:36.030Z,48.40
2019-03-20T08:32:56.725Z,47.60
2019-03-20T08:35:17.283Z,43.90
2019-03-20T08:37:38.105Z,43.90
2019-03-20T08:39:58.724Z,45.50
2019-03-20T08:44:57.991Z,48.00
2019-03-20T08:47:27.659Z,49.60
2019-03-20T08:49:48.255Z,48.50
2019-03-20T08:52:08.835Z,47.30
2019-03-20T08:54:29.358Z,46.50
2019-03-20T08:56:50.248Z,42.80
2019-03-20T08:59:12.209Z,40.00
2019-03-20T09:01:32.786Z,42.90
2019-03-20T09:03:53.557Z,44.50
2019-03-20T09:06:14.190Z,43.30
2019-03-20T09:08:34.701Z,42.90
2019-03-20T09:10:55.240Z,44.70
2019-03-20T09:13:15.741Z,44.90
2019-03-20T09:15:36.335Z,44.40
2019-03-20T09:17:56.855Z,44.60
2019-03-20T09:20:22.443Z,43.90
2019-03-20T09:22:42.942Z,43.20
2019-03-20T09:25:04.760Z,44.70
2019-03-20T09:27:25.205Z,44.00
2019-03-20T09:29:45.643Z,43.70
2019-03-20T09:32:06.206Z,43.60
2019-03-20T09:34:26.863Z,44.30
2019-03-20T09:36:47.385Z,43.60
2019-03-20T09:39:08.184Z,43.80
2019-03-20T09:41:28.843Z,43.80
2019-03-20T09:43:50.464Z,41.90
2019-03-20T09:46:11.004Z,42.80
2019-03-20T09:48:31.513Z,42.20
2019-03-20T09:50:52.098Z,42.40
2019-03-20T09:53:12.571Z,43.00
2019-03-20T09:55:33.168Z,42.80
2019-03-20T09:57:54.741Z,43.10
2019-03-20T10:00:23.497Z,43.30
2019-03-20T10:02:44.165Z,42.80
2019-03-20T10:05:06.365Z,42.00
2019-03-20T10:07:26.979Z,42.50
2019-03-20T10:09:47.543Z,42.40
2019-03-20T10:12:08.239Z,42.40
2019-03-20T10:14:28.779Z,41.50
2019-03-20T10:16:49.327Z,41.20
2019-03-20T10:19:09.885Z,41.30
2019-03-20T10:21:30.452Z,42.60
2019-03-20T10:23:50.954Z,42.10
2019-03-20T10:26:11.613Z,41.10
2019-03-20T10:28:32.283Z,40.70
2019-03-20T10:30:52.882Z,39.80
2019-03-20T10:33:13.438Z,37.80
2019-03-20T10:35:34.001Z,37.00
2019-03-20T10:37:54.547Z,36.40
2019-03-20T10:40:19.294Z,34.50
2019-03-20T10:42:39.797Z,33.80
2019-03-20T10:44:59.748Z,33.30
2019-03-20T10:47:19.945Z,32.80
2019-03-20T10:49:40.252Z,32.10
2019-03-20T10:52:00.516Z,32.50
2019-03-20T10:54:23.375Z,33.50
2019-03-20T10:56:43.665Z,32.70
2019-03-20T10:59:04.177Z,34.20
2019-03-20T11:01:25.484Z,33.70
2019-03-20T11:03:45.818Z,33.30
2019-03-20T11:06:06.269Z,32.70
2019-03-20T11:08:26.561Z,30.20
2019-03-20T11:10:46.950Z,31.60
2019-03-20T11:13:07.246Z,31.80
2019-03-20T11:15:29.561Z,31.60
2019-03-20T11:17:49.681Z,29.80
2019-03-20T11:20:12.524Z,30.00
2019-03-20T11:22:32.897Z,31.00
2019-03-20T11:24:53.150Z,30.20
2019-03-20T11:27:13.378Z,32.20
2019-03-20T11:29:33.689Z,32.90
2019-03-20T11:31:53.945Z,31.50
2019-03-20T11:34:14.291Z,29.50
2019-03-20T11:36:34.513Z,32.10
2019-03-20T11:38:54.778Z,32.10
2019-03-20T11:41:15.101Z,33.70
2019-03-20T11:43:35.337Z,35.00
2019-03-20T11:45:55.539Z,35.40
2019-03-20T11:48:16.240Z,34.90
2019-03-20T11:50:41.100Z,36.50
2019-03-20T11:53:01.699Z,37.90
2019-03-20T11:55:23.622Z,35.80
2019-03-20T11:57:43.783Z,34.30
2019-03-20T12:00:05.912Z,31.30
2019-03-20T12:02:28.334Z,30.00
2019-03-20T12:04:47.553Z,29.00
2019-03-20T12:07:07.582Z,31.60
2019-03-20T12:09:27.818Z,30.90
2019-03-20T12:11:48.175Z,29.20
2019-03-20T12:14:08.479Z,29.00
2019-03-20T12:16:28.728Z,28.70
2019-03-20T12:18:48.967Z,27.90
2019-03-20T12:21:09.281Z,29.40
2019-03-20T12:23:29.508Z,30.70
2019-03-20T12:25:49.773Z,32.20
2019-03-20T12:28:09.998Z,29.00
2019-03-20T12:30:31.538Z,28.90
2019-03-20T12:32:51.965Z,27.60
2019-03-20T12:35:15.065Z,26.00
2019-03-20T12:37:34.342Z,26.30
2019-03-20T12:39:54.189Z,27.00
2019-03-20T12:42:14.218Z,26.30
2019-03-20T12:44:34.177Z,24.90
2019-03-20T12:46:54.383Z,24.50
2019-03-20T12:49:14.695Z,24.00
2019-03-20T12:51:34.948Z,23.60
2019-03-20T12:53:56.657Z,23.50
2019-03-20T12:56:16.909Z,23.70
2019-03-20T12:58:37.203Z,23.70
2019-03-20T13:00:57.470Z,25.70
2019-03-20T13:03:17.806Z,25.30
2019-03-20T13:05:38.062Z,25.10
2019-03-20T13:08:05.460Z,25.10
2019-03-20T13:10:25.237Z,24.50
2019-03-20T13:12:45.645Z,24.60
2019-03-20T13:15:09.195Z,24.80
2019-03-20T13:17:29.576Z,24.40
2019-03-20T13:19:49.900Z,25.40
2019-03-20T13:22:10.205Z,27.60
2019-03-20T13:24:30.528Z,30.30
2019-03-20T13:26:51.265Z,30.50
2019-03-20T13:29:11.506Z,29.30
2019-03-20T13:31:31.837Z,30.60
2019-03-20T13:33:52.063Z,30.60
2019-03-20T13:36:12.411Z,31.90
2019-03-20T13:38:32.752Z,29.40
2019-03-20T13:40:52.999Z,27.20
2019-03-20T13:43:13.481Z,25.60
2019-03-20T13:45:33.887Z,26.00
2019-03-20T13:47:54.187Z,24.90
2019-03-20T13:50:15.507Z,25.10
2019-03-20T13:52:35.728Z,25.30
2019-03-20T13:54:56.888Z,25.40
2019-03-20T13:57:18.304Z,23.90
2019-03-20T13:59:38.779Z,24.00
2019-03-20T14:02:00.805Z,24.70
2019-03-20T14:04:21.387Z,24.40
2019-03-20T14:06:41.763Z,26.60
2019-03-20T14:09:01.957Z,27.00
2019-03-20T14:11:23.889Z,24.60
2019-03-20T14:13:57.092Z,25.10
2019-03-20T14:16:17.338Z,26.20
2019-03-20T14:18:37.302Z,27.10
2019-03-20T14:20:57.403Z,25.90
2019-03-20T14:23:17.464Z,26.70
2019-03-20T14:25:37.491Z,26.70
2019-03-20T14:27:57.521Z,26.10
2019-03-20T14:30:23.292Z,27.00
2019-03-20T14:32:43.328Z,26.00
2019-03-20T14:35:03.321Z,25.50
2019-03-20T14:37:23.294Z,25.60
2019-03-20T14:39:43.274Z,24.60
2019-03-20T14:42:03.374Z,24.70
2019-03-20T14:44:23.611Z,24.90
2019-03-20T14:46:43.685Z,24.80
2019-03-20T14:49:03.825Z,27.50
2019-03-20T14:51:23.913Z,28.40
2019-03-20T14:53:43.822Z,29.20
2019-03-20T14:56:03.786Z,27.60
2019-03-20T14:58:23.917Z,28.20
2019-03-20T15:00:44.206Z,29.80
2019-03-20T15:03:04.603Z,30.80
2019-03-20T15:05:25.173Z,32.70
2019-03-20T15:07:45.660Z,33.80
2019-03-20T15:10:08.895Z,34.30
2019-03-20T15:12:28.022Z,35.10
2019-03-20T15:14:47.850Z,34.40
2019-03-20T15:17:07.874Z,35.20
2019-03-20T15:19:28.584Z,34.60
2019-03-20T15:21:48.461Z,32.90
2019-03-20T15:24:08.381Z,31.30
2019-03-20T15:26:28.939Z,29.80
2019-03-20T15:28:49.078Z,28.90
2019-03-20T15:31:10.363Z,28.50
2019-03-20T15:33:30.663Z,28.50
2019-03-20T15:35:51.056Z,29.50
2019-03-20T15:38:11.568Z,31.80
2019-03-20T15:40:32.066Z,33.90
2019-03-20T15:42:52.349Z,34.40
2019-03-20T15:45:15.323Z,34.00
2019-03-20T15:47:35.579Z,34.30
2019-03-20T15:49:55.589Z,34.50
2019-03-20T15:52:16.127Z,35.90
2019-03-20T15:54:36.088Z,36.40
2019-03-20T15:56:56.192Z,36.00
2019-03-20T15:59:16.799Z,37.10
2019-03-20T16:01:37.359Z,37.20
2019-03-20T16:03:57.721Z,37.70
2019-03-20T16:06:18.254Z,38.60
2019-03-20T16:08:38.862Z,38.90
2019-03-20T16:11:06.632Z,39.60
2019-03-20T16:13:23.197Z,40.40
2019-03-20T16:15:43.900Z,40.50
2019-03-20T16:18:04.973Z,40.50
2019-03-20T16:20:25.889Z,40.70
2019-03-20T16:22:46.717Z,41.00
2019-03-20T16:25:10.258Z,41.30
2019-03-20T16:27:30.845Z,41.70
2019-03-20T16:29:51.506Z,42.10
2019-03-20T16:32:12.315Z,42.10
2019-03-20T16:34:32.906Z,42.20
2019-03-20T16:36:53.493Z,42.00
2019-03-20T16:39:15.327Z,42.50
2019-03-20T16:41:37.028Z,42.30
2019-03-20T16:43:57.892Z,42.50
2019-03-20T16:46:20.403Z,42.60
2019-03-20T16:48:42.171Z,42.70
2019-03-20T16:51:04.748Z,43.20
2019-03-20T16:53:27.663Z,43.60
2019-03-20T16:55:48.187Z,43.80
2019-03-20T16:58:10.929Z,45.10
2019-03-20T17:00:35.520Z,45.00
2019-03-20T17:02:57.706Z,44.80
2019-03-20T17:05:20.352Z,45.40
2019-03-20T17:07:43.188Z,45.40
2019-03-20T17:10:04.614Z,45.70
2019-03-20T17:12:26.638Z,45.80
2019-03-20T17:14:48.795Z,46.30
2019-03-20T17:17:10.942Z,46.80
2019-03-20T17:19:32.261Z,46.90
2019-03-20T17:21:54.533Z,46.90
2019-03-20T17:24:16.518Z,47.10
2019-03-20T17:26:38.871Z,47.30
2019-03-20T17:29:08.594Z,47.40
2019-03-20T17:31:24.046Z,47.60
2019-03-20T17:33:45.724Z,47.90
2019-03-20T17:36:09.492Z,48.30
2019-03-20T17:38:32.435Z,48.90
2019-03-20T17:40:54.358Z,49.60
2019-03-20T17:43:15.423Z,50.00
2019-03-20T17:45:37.512Z,51.40
2019-03-20T17:47:58.744Z,52.90
2019-03-20T17:51:31.986Z,53.30
2019-03-20T17:53:13.042Z,54.30
2019-03-20T17:55:34.680Z,54.60
2019-03-20T17:57:55.817Z,55.20
2019-03-20T18:00:21.108Z,55.20
2019-03-20T18:02:42.652Z,55.70
2019-03-20T18:05:07.231Z,56.10
2019-03-20T18:07:28.978Z,56.60
2019-03-20T18:09:50.873Z,56.90
2019-03-20T18:12:12.377Z,57.10
2019-03-20T18:14:38.721Z,57.70
2019-03-20T18:17:00.347Z,57.70
2019-03-20T18:19:21.966Z,57.80
2019-03-20T18:21:49.913Z,58.10
2019-03-20T18:24:24.978Z,58.60
2019-03-20T18:26:47.465Z,58.60
2019-03-20T18:29:09.445Z,58.90
2019-03-20T18:31:30.782Z,59.40
2019-03-20T18:33:52.177Z,60.50
2019-03-20T18:36:14.032Z,61.40
2019-03-20T18:38:35.432Z,62.00
2019-03-20T18:40:57.120Z,62.20
2019-03-20T18:43:19.747Z,62.90
2019-03-20T18:45:41.801Z,62.70
2019-03-20T18:48:03.986Z,63.80
2019-03-20T18:50:26.735Z,63.90
2019-03-20T18:52:50.580Z,64.50
2019-03-20T18:55:15.337Z,64.70
2019-03-20T18:57:37.073Z,65.30
2019-03-20T19:00:00.031Z,65.50
2019-03-20T19:02:22.004Z,65.60
2019-03-20T19:04:49.143Z,65.70
2019-03-20T19:07:14.759Z,65.60
2019-03-20T19:09:36.178Z,65.90
2019-03-20T19:12:08.119Z,66.10
2019-03-20T19:14:25.523Z,66.50
2019-03-20T19:16:47.815Z,66.50
2019-03-20T19:19:08.964Z,67.20
2019-03-20T19:21:33.235Z,66.70
2019-03-20T19:23:54.537Z,66.90
2019-03-20T19:26:16.080Z,67.00
2019-03-20T19:28:37.667Z,67.00
2019-03-20T19:31:00.900Z,67.20
2019-03-20T19:33:23.033Z,67.60
2019-03-20T19:35:50.736Z,68.30
2019-03-20T19:38:13.425Z,68.90
2019-03-20T19:40:37.064Z,69.40
2019-03-20T19:43:00.321Z,69.60
2019-03-20T19:45:28.610Z,69.70
2019-03-20T19:47:50.864Z,70.00
2019-03-20T19:50:19.094Z,70.80
2019-03-20T19:52:42.050Z,71.20
2019-03-20T19:55:18.445Z,71.30
2019-03-20T19:57:41.328Z,71.10
2019-03-20T20:00:08.075Z,71.10
2019-03-20T20:02:31.783Z,71.30
2019-03-20T20:04:53.149Z,71.40
2019-03-20T20:07:18.192Z,71.50
2019-03-20T20:09:39.004Z,72.20
2019-03-20T20:12:15.482Z,72.40
2019-03-20T20:14:36.952Z,72.30
2019-03-20T20:16:58.206Z,72.00
2019-03-20T20:19:20.485Z,71.90
2019-03-20T20:21:41.455Z,72.20
2019-03-20T20:24:02.753Z,72.20
2019-03-20T20:26:23.638Z,72.60
2019-03-20T20:28:44.672Z,72.50
2019-03-20T20:31:06.236Z,72.60
2019-03-20T20:33:27.584Z,72.60
2019-03-20T20:35:48.961Z,72.70
2019-03-20T20:38:10.062Z,72.90
2019-03-20T20:40:32.191Z,73.30
2019-03-20T20:42:53.890Z,73.90
2019-03-20T20:45:15.652Z,75.40
2019-03-20T20:47:37.012Z,75.70
2019-03-20T20:50:00.962Z,76.00
2019-03-20T20:52:22.346Z,75.90
2019-03-20T20:54:44.328Z,75.40
2019-03-20T20:57:07.744Z,75.40
2019-03-20T20:59:29.511Z,75.30
2019-03-20T21:01:51.431Z,75.40
2019-03-20T21:04:12.958Z,75.50
2019-03-20T21:06:34.689Z,75.10
2019-03-20T21:08:57.009Z,75.60
2019-03-20T21:11:18.677Z,76.80
2019-03-20T21:13:39.502Z,77.30
2019-03-20T21:16:01.054Z,77.40
2019-03-20T21:18:44.766Z,77.90
2019-03-20T21:21:06.247Z,78.10
2019-03-20T21:23:40.622Z,77.70
2019-03-20T21:26:03.011Z,77.50
2019-03-20T21:28:52.936Z,77.90
2019-03-20T21:31:15.478Z,78.00
2019-03-20T21:33:56.425Z,78.70
2019-03-20T21:36:35.421Z,78.40
2019-03-20T21:38:55.979Z,78.60
2019-03-20T21:41:20.086Z,79.50
2019-03-20T21:43:59.911Z,79.40
2019-03-20T21:46:48.626Z,79.50
2019-03-20T21:49:09.288Z,79.60
2019-03-20T21:51:36.116Z,80.10
2019-03-20T21:54:17.021Z,80.30
2019-03-20T21:56:49.960Z,80.50
2019-03-20T21:59:20.624Z,80.90
2019-03-20T22:01:59.566Z,81.10
2019-03-20T22:04:27.799Z,80.70
2019-03-20T22:07:14.809Z,80.70
2019-03-20T22:10:18.864Z,80.80
2019-03-20T22:12:51.771Z,81.10
2019-03-20T22:15:56.459Z,81.10
2019-03-20T22:18:56.723Z,81.50
2019-03-20T22:22:03.267Z,81.40
2019-03-20T22:24:51.877Z,81.40
2019-03-20T22:28:26.271Z,82.30
2019-03-20T22:30:32.524Z,82.90
2019-03-20T22:33:35.931Z,82.10
2019-03-20T22:36:25.457Z,82.40
2019-03-20T22:38:52.836Z,82.50
2019-03-20T22:41:24.436Z,82.90
2019-03-20T22:44:04.899Z,83.20
2019-03-20T22:50:21.504Z,83.00
2019-03-20T22:52:58.643Z,82.80
2019-03-20T22:56:02.484Z,82.90
2019-03-20T22:58:51.878Z,83.40
2019-03-20T23:04:56.631Z,83.80
2019-03-20T23:07:35.928Z,83.90
2019-03-20T23:10:06.150Z,84.40
2019-03-20T23:12:52.607Z,85.00
2019-03-20T23:15:03.368Z,84.90
2019-03-20T23:17:27.561Z,85.10
2019-03-20T23:19:52.980Z,85.30
2019-03-20T23:22:20.252Z,85.50
2019-03-20T23:24:50.996Z,85.00
2019-03-20T23:27:18.303Z,84.80
2019-03-20T23:29:47.562Z,85.20
2019-03-20T23:32:17.093Z,85.00
2019-03-20T23:35:02.452Z,84.90
2019-03-20T23:37:48.769Z,85.80
2019-03-20T23:43:17.625Z,85.50
2019-03-20T23:48:31.274Z,85.30
2019-03-20T23:51:16.778Z,86.10
2019-03-20T23:53:40.240Z,85.90
2019-03-20T23:56:11.171Z,85.80
2019-03-20T23:58:37.371Z,85.70
